Skip Navigation Links Skip Navigation Links

Current Weather

Simmons Aaf, Fort Bragg, N.C.

For information only: do not use for flight planning or navigation.
Latest weather
Observation time Friday, December 4, 2020 2:56 AM EST
Local time Friday, December 4, 2020 3:39 AM EST
Flight conditions Visual Meteorological Conditions
Winds
Wind speed calm
Visibility 10 mi.
Sky condition
Ceiling unlimited
Cloud layer scattered clouds 17,000 ft.
Cloud layer scattered clouds 20,000 ft.
Temperature 36°F
Dewpoint 36°F
Altimeter 30.23 in.Hg
Derived measurements
Relative humidity 99%
Wind chill 36°F
Density altitude -1552 ft.
Sea-level pressure 30.24 in.Hg
Remarks
Fully automated report.
System requires maintenance.
Automated weather observing station with precipitation discriminator.
METAR KFBG 040756Z AUTO 00000KT 10SM SCT170 SCT200 02/02 A3023 RMK AO2 SLP241 T00230022 $

Settings

Location code

InnerDrive.Weather 4.0.6770.0 Release CLR 4.0.30319.42000
Copyright ©2018 Inner Drive Technology. All rights reserved. Portions Copyright ©1986-2018 David Braverman.

Find weather

Site navigation


Skip Navigation Links

Place info

Page info

PayPal - The safer, easier way to pay online!

Return home.

Copyright ©2020 Inner Drive Technology. Purveyors of fine, hand-crafted computer software. Page printed 2020-12-04T08:39:50 UTC.